createdAt,value
2023-05-03T00:01:27.573Z,97779.03
2023-05-03T00:03:55.756Z,97770.31
2023-05-03T00:06:24.157Z,97771.72
2023-05-03T00:08:54.093Z,97777.94
2023-05-03T00:11:22.346Z,97775.44
2023-05-03T00:13:50.987Z,97775.38
2023-05-03T00:16:19.809Z,97780.97
2023-05-03T00:18:49.234Z,97781.94
2023-05-03T00:21:17.896Z,97778.41
2023-05-03T00:23:46.199Z,97782.75
2023-05-03T00:26:15.995Z,97779.47
2023-05-03T00:28:44.110Z,97782.13
2023-05-03T00:31:13.873Z,97784.16
2023-05-03T00:33:42.782Z,97780.97
2023-05-03T00:36:11.536Z,97783.56
2023-05-03T00:38:41.485Z,97786.09
2023-05-03T00:41:11.609Z,97785.63
2023-05-03T00:43:41.478Z,97785.63
2023-05-03T00:46:17.321Z,97784.22
2023-05-03T00:48:47.426Z,97785.63
2023-05-03T00:51:16.653Z,97789.47
2023-05-03T00:53:45.159Z,97785.91
2023-05-03T00:56:18.299Z,97784.16
2023-05-03T00:58:47.916Z,97781.34
2023-05-03T01:01:16.753Z,97777.44
2023-05-03T01:03:46.647Z,97775.75
2023-05-03T01:06:22.876Z,97777.91
2023-05-03T01:09:00.972Z,97783.06
2023-05-03T01:11:38.998Z,97782.06
2023-05-03T01:14:22.276Z,97773.31
2023-05-03T01:16:55.546Z,97778.53
2023-05-03T01:19:30.953Z,97781.84
2023-05-03T01:22:08.319Z,97784.16
2023-05-03T01:24:38.772Z,97782.75
2023-05-03T01:27:09.512Z,97774.69
2023-05-03T01:29:37.704Z,97779.50
2023-05-03T01:32:10.760Z,97778.19
2023-05-03T01:34:44.492Z,97775.88
2023-05-03T01:37:15.902Z,97771.25
2023-05-03T01:39:50.430Z,97772.81
2023-05-03T01:42:21.954Z,97769.03
2023-05-03T01:44:51.516Z,97770.56
2023-05-03T01:47:19.862Z,97767.16
2023-05-03T01:49:48.373Z,97763.78
2023-05-03T01:52:16.313Z,97762.56
2023-05-03T01:54:45.808Z,97770.75
2023-05-03T01:57:13.725Z,97774.06
2023-05-03T01:59:44.612Z,97769.13
2023-05-03T02:02:12.949Z,97761.03
2023-05-03T02:04:42.817Z,97761.28
2023-05-03T02:07:11.405Z,97768.47
2023-05-03T02:09:40.068Z,97761.22
2023-05-03T02:12:10.009Z,97764.81
2023-05-03T02:14:37.979Z,97772.16
2023-05-03T02:17:08.794Z,97773.13
2023-05-03T02:19:37.164Z,97781.13
2023-05-03T02:22:05.593Z,97775.41
2023-05-03T02:24:36.346Z,97766.22
2023-05-03T02:27:05.139Z,97776.03
2023-05-03T02:29:33.372Z,97770.41
2023-05-03T02:32:05.529Z,97766.50
2023-05-03T02:34:35.744Z,97776.59
2023-05-03T02:37:04.038Z,97762.72
2023-05-03T02:39:33.012Z,97771.66
2023-05-03T02:42:01.071Z,97765.25
2023-05-03T02:44:30.394Z,97771.63
2023-05-03T02:47:00.284Z,97772.34
2023-05-03T02:49:29.119Z,97771.66
2023-05-03T02:51:58.800Z,97765.91
2023-05-03T02:54:27.160Z,97772.19
2023-05-03T02:56:55.917Z,97774.69
2023-05-03T02:59:24.025Z,97776.09
2023-05-03T03:01:52.681Z,97771.34
2023-05-03T03:04:21.141Z,97769.31
2023-05-03T03:06:49.312Z,97768.81
2023-05-03T03:09:19.592Z,97773.13
2023-05-03T03:11:48.066Z,97772.97
2023-05-03T03:14:17.997Z,97773.16
2023-05-03T03:16:46.481Z,97773.69
2023-05-03T03:19:15.427Z,97767.97
2023-05-03T03:21:43.818Z,97769.38
2023-05-03T03:24:12.286Z,97769.81
2023-05-03T03:26:43.588Z,97775.66
2023-05-03T03:29:12.230Z,97782.63
2023-05-03T03:31:44.318Z,97776.78
2023-05-03T03:34:13.527Z,97787.13
2023-05-03T03:36:42.989Z,97788.09
2023-05-03T03:39:12.011Z,97792.97
2023-05-03T03:41:45.497Z,97794.72
2023-05-03T03:44:13.892Z,97803.28
2023-05-03T03:46:42.639Z,97804.41
2023-05-03T03:49:12.037Z,97808.66
2023-05-03T03:51:40.558Z,97808.72
2023-05-03T03:54:10.249Z,97804.00
2023-05-03T03:56:45.312Z,97805.81
2023-05-03T03:59:13.659Z,97806.66
2023-05-03T04:01:42.598Z,97812.22
2023-05-03T04:04:12.848Z,97816.66
2023-05-03T04:06:41.931Z,97817.72
2023-05-03T04:09:14.162Z,97818.97
2023-05-03T04:11:42.818Z,97822.16
2023-05-03T04:14:12.471Z,97820.91
2023-05-03T04:16:43.503Z,97829.34
2023-05-03T04:19:13.040Z,97826.28
2023-05-03T04:21:43.473Z,97829.22
2023-05-03T04:24:17.495Z,97827.13
2023-05-03T04:26:47.453Z,97827.13
2023-05-03T04:29:23.760Z,97829.41
2023-05-03T04:31:52.177Z,97833.56
2023-05-03T04:34:21.049Z,97826.91
2023-05-03T04:36:53.156Z,97835.06
2023-05-03T04:39:22.428Z,97842.81
2023-05-03T04:41:50.604Z,97841.44
2023-05-03T04:44:19.023Z,97847.63
2023-05-03T04:46:51.654Z,97846.72
2023-05-03T04:49:20.576Z,97846.72
2023-05-03T04:51:48.902Z,97856.97
2023-05-03T04:54:19.845Z,97851.22
2023-05-03T04:56:49.800Z,97857.78
2023-05-03T04:59:20.175Z,97863.59
2023-05-03T05:01:49.299Z,97857.97
2023-05-03T05:04:19.833Z,97865.59
2023-05-03T05:06:54.799Z,97862.97
2023-05-03T05:09:29.100Z,97867.72
2023-05-03T05:11:59.866Z,97867.75
2023-05-03T05:14:34.168Z,97874.00
2023-05-03T05:17:03.222Z,97871.13
2023-05-03T05:19:39.377Z,97878.50
2023-05-03T05:22:08.179Z,97880.50
2023-05-03T05:24:45.581Z,97878.09
2023-05-03T05:27:17.369Z,97874.94
2023-05-03T05:29:45.621Z,97879.09
2023-05-03T05:32:14.100Z,97881.94
2023-05-03T05:34:45.822Z,97881.88
2023-05-03T05:37:20.248Z,97891.34
2023-05-03T05:39:49.726Z,97883.84
2023-05-03T05:42:20.050Z,97893.22
2023-05-03T05:44:48.771Z,97891.75
2023-05-03T05:47:43.939Z,97900.13
2023-05-03T05:50:18.239Z,97898.28
2023-05-03T05:53:00.583Z,97894.00
2023-05-03T05:55:32.119Z,97893.75
2023-05-03T05:58:02.362Z,97896.53
2023-05-03T06:00:39.156Z,97897.53
2023-05-03T06:03:07.888Z,97906.91
2023-05-03T06:05:38.503Z,97899.16
2023-05-03T06:08:07.197Z,97905.81
2023-05-03T06:10:35.583Z,97907.41
2023-05-03T06:13:05.107Z,97912.75
2023-05-03T06:15:34.641Z,97903.72
2023-05-03T06:18:04.823Z,97913.94
2023-05-03T06:20:34.557Z,97912.22
2023-05-03T06:23:06.240Z,97914.66
2023-05-03T06:25:35.792Z,97903.41
2023-05-03T06:28:06.343Z,97913.81
2023-05-03T06:30:37.016Z,97909.31
2023-05-03T06:33:15.198Z,97907.06
2023-05-03T06:36:12.147Z,97907.81
2023-05-03T06:38:42.284Z,97905.69
2023-05-03T06:41:11.048Z,97902.06
2023-05-03T06:43:39.599Z,97906.88
2023-05-03T06:46:08.365Z,97909.03
2023-05-03T06:48:36.790Z,97914.31
2023-05-03T06:51:07.016Z,97918.13
2023-05-03T06:53:35.522Z,97913.72
2023-05-03T06:56:06.172Z,97917.66
2023-05-03T06:58:35.126Z,97918.63
2023-05-03T07:01:03.669Z,97914.34
2023-05-03T07:03:32.664Z,97908.47
2023-05-03T07:06:04.709Z,97909.63
2023-05-03T07:08:32.990Z,97909.91
2023-05-03T07:11:05.654Z,97898.38
2023-05-03T07:13:34.637Z,97899.34
2023-05-03T07:16:03.830Z,97901.28
2023-05-03T07:18:32.048Z,97895.22
2023-05-03T07:21:01.831Z,97897.16
2023-05-03T07:23:30.418Z,97902.13
2023-05-03T07:26:00.276Z,97899.66
2023-05-03T07:28:30.556Z,97900.25
2023-05-03T07:30:59.643Z,97901.00
2023-05-03T07:33:28.440Z,97890.97
2023-05-03T07:35:56.755Z,97882.22
2023-05-03T07:38:25.070Z,97887.34
2023-05-03T07:40:53.396Z,97889.84
2023-05-03T07:43:23.707Z,97887.31
2023-05-03T07:45:53.652Z,97886.44
2023-05-03T07:48:21.994Z,97883.63
2023-05-03T07:50:50.547Z,97896.31
2023-05-03T07:53:18.693Z,97903.75
2023-05-03T07:55:46.990Z,97891.84
2023-05-03T07:58:15.159Z,97891.19
2023-05-03T08:00:45.648Z,97894.06
2023-05-03T08:03:16.345Z,97888.31
2023-05-03T08:06:11.034Z,97896.09
2023-05-03T08:08:39.336Z,97894.16
2023-05-03T08:11:07.907Z,97887.84
2023-05-03T08:13:36.860Z,97886.81
2023-05-03T08:16:05.820Z,97898.09
2023-05-03T08:18:35.971Z,97897.38
2023-05-03T08:21:04.487Z,97893.75
2023-05-03T08:23:33.071Z,97898.22
2023-05-03T08:26:04.608Z,97900.59
2023-05-03T08:28:32.949Z,97898.84
2023-05-03T08:31:03.311Z,97892.28
2023-05-03T08:33:33.975Z,97889.31
2023-05-03T08:36:04.001Z,97891.81
2023-05-03T08:38:32.690Z,97891.22
2023-05-03T08:41:11.013Z,97888.84
2023-05-03T08:43:45.755Z,97895.81
2023-05-03T08:46:15.024Z,97887.94
2023-05-03T08:48:44.710Z,97899.47
2023-05-03T08:51:19.216Z,97908.66
2023-05-03T08:53:51.800Z,97908.88
2023-05-03T08:56:27.737Z,97903.78
2023-05-03T08:58:56.466Z,97902.03
2023-05-03T09:01:26.519Z,97899.63
2023-05-03T09:03:55.600Z,97899.19
2023-05-03T09:06:26.411Z,97897.94
2023-05-03T09:08:55.251Z,97909.69
2023-05-03T09:11:24.855Z,97905.03
2023-05-03T09:13:53.975Z,97905.88
2023-05-03T09:16:29.381Z,97900.06
2023-05-03T09:18:59.476Z,97903.66
2023-05-03T09:21:29.520Z,97899.97
2023-05-03T09:23:57.993Z,97907.88
2023-05-03T09:26:31.728Z,97896.16
2023-05-03T09:29:01.970Z,97896.31
2023-05-03T09:31:31.807Z,97902.97
2023-05-03T09:34:00.000Z,97897.41
2023-05-03T09:36:30.230Z,97912.34
2023-05-03T09:38:58.472Z,97908.13
2023-05-03T09:41:30.874Z,97903.56
2023-05-03T09:44:03.266Z,97903.16
2023-05-03T09:46:32.465Z,97894.41
2023-05-03T09:49:01.235Z,97887.44
2023-05-03T09:51:31.962Z,97893.41
2023-05-03T09:54:00.965Z,97898.81
2023-05-03T09:56:30.080Z,97879.78
2023-05-03T09:58:59.064Z,97895.28
2023-05-03T10:01:28.174Z,97881.47
2023-05-03T10:04:10.440Z,97877.84
2023-05-03T10:06:44.500Z,97874.06
2023-05-03T10:09:16.613Z,97871.81
2023-05-03T10:11:49.497Z,97867.47
2023-05-03T10:14:18.204Z,97866.09
2023-05-03T10:16:50.169Z,97861.41
2023-05-03T10:19:24.795Z,97863.44
2023-05-03T10:22:01.050Z,97871.72
2023-05-03T10:24:29.834Z,97869.47
2023-05-03T10:26:58.931Z,97882.81
2023-05-03T10:29:51.998Z,97864.66
2023-05-03T10:32:31.035Z,97865.53
2023-05-03T10:35:03.577Z,97860.63
2023-05-03T10:37:36.549Z,97857.84
2023-05-03T10:40:13.951Z,97866.00
2023-05-03T10:42:45.890Z,97865.75
2023-05-03T10:45:23.910Z,97870.38
2023-05-03T10:48:20.597Z,97857.59
2023-05-03T10:50:50.427Z,97854.28
2023-05-03T10:53:40.911Z,97851.38
2023-05-03T10:56:11.196Z,97858.44
2023-05-03T10:58:43.912Z,97849.84
2023-05-03T11:01:14.705Z,97859.84
2023-05-03T11:03:47.174Z,97855.84
2023-05-03T11:06:32.857Z,97862.28
2023-05-03T11:09:06.041Z,97863.19
2023-05-03T11:11:35.066Z,97860.47
2023-05-03T11:14:04.235Z,97857.69
2023-05-03T11:16:33.079Z,97855.97
2023-05-03T11:19:03.653Z,97854.66
2023-05-03T11:21:32.127Z,97860.31
2023-05-03T11:24:03.257Z,97872.16
2023-05-03T11:26:38.127Z,97872.69
2023-05-03T11:29:06.909Z,97864.72
2023-05-03T11:31:35.879Z,97870.00
2023-05-03T11:34:04.349Z,97859.44
2023-05-03T11:36:32.812Z,97851.06
2023-05-03T11:39:01.463Z,97855.00
2023-05-03T11:41:29.799Z,97858.63
2023-05-03T11:44:12.038Z,97857.66
2023-05-03T11:46:44.432Z,97859.06
2023-05-03T11:49:19.757Z,97860.69
2023-05-03T11:51:52.542Z,97860.13
2023-05-03T11:54:26.882Z,97857.63
2023-05-03T11:56:58.315Z,97854.91
2023-05-03T11:59:39.283Z,97842.06
2023-05-03T12:02:09.528Z,97852.03
2023-05-03T12:04:42.195Z,97852.97
2023-05-03T12:07:15.294Z,97860.63
2023-05-03T12:09:52.773Z,97854.78
2023-05-03T12:12:32.314Z,97844.75
2023-05-03T12:15:07.721Z,97847.78
2023-05-03T12:17:38.710Z,97845.03
2023-05-03T12:22:57.724Z,97852.00
2023-05-03T12:25:29.064Z,97850.69
2023-05-03T12:30:36.205Z,97845.00
2023-05-03T12:33:09.538Z,97841.88
2023-05-03T12:35:40.862Z,97843.50
2023-05-03T12:38:10.657Z,97838.88
2023-05-03T12:40:40.960Z,97839.03
2023-05-03T12:43:09.541Z,97838.19
2023-05-03T12:45:41.144Z,97833.81
2023-05-03T12:48:09.720Z,97830.41
2023-05-03T12:50:39.145Z,97831.44
2023-05-03T12:53:10.009Z,97830.19
2023-05-03T12:55:42.609Z,97826.56
2023-05-03T13:01:06.186Z,97823.91
2023-05-03T13:03:37.114Z,97820.03
2023-05-03T13:06:14.821Z,97819.53
2023-05-03T13:08:49.875Z,97814.06
2023-05-03T13:11:20.668Z,97811.00
2023-05-03T13:13:48.723Z,97812.91
2023-05-03T13:16:19.777Z,97810.19
2023-05-03T13:18:49.368Z,97817.50
2023-05-03T13:21:18.429Z,97809.38
2023-05-03T13:23:48.049Z,97803.72
2023-05-03T13:26:16.514Z,97802.22
2023-05-03T13:28:45.061Z,97799.78
2023-05-03T13:31:13.428Z,97793.19
2023-05-03T13:33:43.087Z,97798.47
2023-05-03T13:36:11.211Z,97794.88
2023-05-03T13:38:41.923Z,97792.25
2023-05-03T13:41:10.092Z,97796.72
2023-05-03T13:43:39.462Z,97791.75
2023-05-03T13:46:07.819Z,97792.00
2023-05-03T13:48:36.446Z,97791.38
2023-05-03T13:51:10.066Z,97788.50
2023-05-03T13:53:38.227Z,97774.56
2023-05-03T13:56:08.131Z,97782.44
2023-05-03T13:58:39.830Z,97788.31
2023-05-03T14:01:09.570Z,97784.47
2023-05-03T14:03:38.196Z,97784.75
2023-05-03T14:06:08.395Z,97790.66
2023-05-03T14:08:38.197Z,97781.38
2023-05-03T14:11:06.919Z,97786.28
2023-05-03T14:13:47.644Z,97778.19
2023-05-03T14:18:58.735Z,97778.69
2023-05-03T14:21:27.328Z,97782.03
2023-05-03T14:23:57.488Z,97780.47
2023-05-03T14:26:26.925Z,97779.53
2023-05-03T14:28:54.985Z,97776.06
2023-05-03T14:31:23.560Z,97779.16
2023-05-03T14:33:52.883Z,97779.25
2023-05-03T14:36:21.372Z,97782.88
2023-05-03T14:38:49.604Z,97778.53
2023-05-03T14:41:19.199Z,97766.50
2023-05-03T14:43:47.428Z,97770.59
2023-05-03T14:46:16.724Z,97770.09
2023-05-03T14:48:45.192Z,97775.78
2023-05-03T14:51:15.088Z,97777.28
2023-05-03T14:53:43.416Z,97782.94
2023-05-03T14:56:11.596Z,97780.59
2023-05-03T14:58:41.448Z,97781.25
2023-05-03T15:01:10.189Z,97782.63
2023-05-03T15:03:38.695Z,97786.63
2023-05-03T15:06:07.444Z,97783.41
2023-05-03T15:08:35.919Z,97784.53
2023-05-03T15:11:05.825Z,97783.63
2023-05-03T15:13:34.301Z,97786.25
2023-05-03T15:16:04.015Z,97789.81
2023-05-03T15:18:32.649Z,97787.38
2023-05-03T15:21:01.238Z,97778.97
2023-05-03T15:23:29.611Z,97774.63
2023-05-03T15:25:58.550Z,97777.19
2023-05-03T15:28:26.716Z,97775.22
2023-05-03T15:30:54.888Z,97783.16
2023-05-03T15:33:24.869Z,97781.19
2023-05-03T15:35:54.706Z,97773.72
2023-05-03T15:38:22.830Z,97774.03
2023-05-03T15:40:50.970Z,97769.81
2023-05-03T15:43:19.483Z,97772.75
2023-05-03T15:45:48.175Z,97771.38
2023-05-03T15:48:16.521Z,97773.25
2023-05-03T15:50:46.295Z,97774.00
2023-05-03T15:53:14.277Z,97773.44
2023-05-03T15:55:42.770Z,97773.00
2023-05-03T15:58:11.756Z,97768.47
2023-05-03T16:00:40.774Z,97772.06
2023-05-03T16:03:09.392Z,97776.34
2023-05-03T16:05:37.561Z,97776.22
2023-05-03T16:08:08.644Z,97776.72
2023-05-03T16:10:36.900Z,97768.19
2023-05-03T16:13:05.242Z,97768.53
2023-05-03T16:15:33.582Z,97759.69
2023-05-03T16:18:02.155Z,97751.97
2023-05-03T16:20:30.521Z,97762.44
2023-05-03T16:22:58.624Z,97759.97
2023-05-03T16:25:29.932Z,97756.09
2023-05-03T16:27:59.954Z,97754.16
2023-05-03T16:30:28.444Z,97751.22
2023-05-03T16:32:57.080Z,97749.97
2023-05-03T16:35:25.754Z,97748.28
2023-05-03T16:37:54.042Z,97750.94
2023-05-03T16:40:22.247Z,97747.88
2023-05-03T16:42:52.080Z,97745.69
2023-05-03T16:45:20.485Z,97744.94
2023-05-03T16:47:49.100Z,97748.09
2023-05-03T16:50:18.744Z,97745.84
2023-05-03T16:52:47.433Z,97734.94
2023-05-03T16:55:16.512Z,97735.09
2023-05-03T16:57:44.719Z,97737.69
2023-05-03T17:00:17.512Z,97736.50
2023-05-03T17:02:45.953Z,97731.78
2023-05-03T17:05:15.384Z,97730.09
2023-05-03T17:07:43.560Z,97726.66
2023-05-03T17:10:12.908Z,97722.59
2023-05-03T17:12:41.253Z,97728.03
2023-05-03T17:15:10.867Z,97723.22
2023-05-03T17:17:40.532Z,97723.50
2023-05-03T17:20:13.026Z,97726.81
2023-05-03T17:22:41.363Z,97729.91
2023-05-03T17:25:13.280Z,97729.06
2023-05-03T17:27:44.683Z,97730.28
2023-05-03T17:30:17.809Z,97737.41
2023-05-03T17:32:48.988Z,97725.38
2023-05-03T17:35:17.864Z,97731.19
2023-05-03T17:37:46.480Z,97735.88
2023-05-03T17:40:15.462Z,97734.63
2023-05-03T17:42:43.725Z,97732.44
2023-05-03T17:45:14.021Z,97734.75
2023-05-03T17:47:42.758Z,97734.72
2023-05-03T17:50:13.654Z,97737.50
2023-05-03T17:52:41.739Z,97735.41
2023-05-03T17:55:15.260Z,97738.31
2023-05-03T17:57:46.202Z,97733.31
2023-05-03T18:00:16.966Z,97738.13
2023-05-03T18:02:45.784Z,97733.22
2023-05-03T18:05:16.669Z,97737.75
2023-05-03T18:07:45.971Z,97743.53
2023-05-03T18:10:17.621Z,97736.25
2023-05-03T18:12:46.626Z,97740.59
2023-05-03T18:15:15.886Z,97740.47
2023-05-03T18:17:44.439Z,97745.78
2023-05-03T18:20:16.057Z,97751.88
2023-05-03T18:22:45.674Z,97756.09
2023-05-03T18:25:14.299Z,97753.13
2023-05-03T18:27:42.731Z,97759.72
2023-05-03T18:30:12.076Z,97755.38
2023-05-03T18:32:41.851Z,97751.59
2023-05-03T18:35:11.050Z,97756.34
2023-05-03T18:37:39.880Z,97760.59
2023-05-03T18:40:18.231Z,97765.84
2023-05-03T18:42:47.713Z,97772.09
2023-05-03T18:45:17.516Z,97775.00
2023-05-03T18:47:46.111Z,97780.75
2023-05-03T18:50:14.428Z,97772.50
2023-05-03T18:52:42.542Z,97776.69
2023-05-03T18:55:13.081Z,97766.72
2023-05-03T18:57:41.306Z,97775.00
2023-05-03T19:00:11.501Z,97785.19
2023-05-03T19:02:40.582Z,97779.41
2023-05-03T19:05:12.065Z,97772.69
2023-05-03T19:07:42.991Z,97779.19
2023-05-03T19:10:13.427Z,97781.72
2023-05-03T19:12:42.830Z,97785.75
2023-05-03T19:15:12.270Z,97776.88
2023-05-03T19:17:42.179Z,97784.75
2023-05-03T19:20:12.148Z,97780.81
2023-05-03T19:22:40.587Z,97780.84
2023-05-03T19:25:10.851Z,97791.41
2023-05-03T19:27:40.514Z,97786.66
2023-05-03T19:30:09.707Z,97791.22
2023-05-03T19:32:39.487Z,97789.97
2023-05-03T19:35:09.648Z,97795.16
2023-05-03T19:37:38.836Z,97789.94
2023-05-03T19:40:08.070Z,97795.09
2023-05-03T19:42:36.413Z,97793.72
2023-05-03T19:45:10.009Z,97796.34
2023-05-03T19:47:38.946Z,97793.56
2023-05-03T19:50:08.078Z,97796.16
2023-05-03T19:52:36.652Z,97793.34
2023-05-03T19:55:07.327Z,97795.63
2023-05-03T19:57:35.641Z,97798.81
2023-05-03T20:00:07.667Z,97796.25
2023-05-03T20:02:37.494Z,97792.47
2023-05-03T20:05:08.637Z,97790.53
2023-05-03T20:07:37.715Z,97792.03
2023-05-03T20:10:06.668Z,97786.72
2023-05-03T20:12:35.100Z,97786.41
2023-05-03T20:15:03.267Z,97779.41
2023-05-03T20:17:33.053Z,97779.50
2023-05-03T20:20:07.822Z,97786.88
2023-05-03T20:22:36.250Z,97783.25
2023-05-03T20:25:04.836Z,97785.66
2023-05-03T20:27:33.217Z,97787.94
2023-05-03T20:30:04.368Z,97790.06
2023-05-03T20:32:36.469Z,97788.66
2023-05-03T20:35:05.361Z,97797.91
2023-05-03T20:37:33.516Z,97787.50
2023-05-03T20:40:02.382Z,97791.75
2023-05-03T20:42:30.800Z,97792.34
2023-05-03T20:44:59.081Z,97791.69
2023-05-03T20:47:27.913Z,97790.53
2023-05-03T20:49:57.812Z,97794.09
2023-05-03T20:52:26.017Z,97796.75
2023-05-03T20:54:54.253Z,97795.34
2023-05-03T20:57:22.434Z,97790.06
2023-05-03T20:59:50.856Z,97789.34
2023-05-03T21:02:19.372Z,97792.09
2023-05-03T21:04:47.514Z,97788.03
2023-05-03T21:07:17.862Z,97788.41
2023-05-03T21:09:45.975Z,97792.00
2023-05-03T21:12:14.249Z,97786.50
2023-05-03T21:14:42.949Z,97784.34
2023-05-03T21:21:18.419Z,97779.66
2023-05-03T21:23:47.942Z,97779.81
2023-05-03T21:26:16.827Z,97780.53
2023-05-03T21:28:45.121Z,97778.38
2023-05-03T21:31:14.666Z,97766.47
2023-05-03T21:33:43.596Z,97776.81
2023-05-03T21:36:12.588Z,97776.22
2023-05-03T21:38:41.423Z,97780.56
2023-05-03T21:41:11.351Z,97776.22
2023-05-03T21:43:39.549Z,97780.97
2023-05-03T21:46:08.621Z,97769.78
2023-05-03T21:48:37.304Z,97770.69
2023-05-03T21:51:05.551Z,97768.94
2023-05-03T21:53:35.557Z,97769.66
2023-05-03T21:56:04.719Z,97765.13
2023-05-03T21:58:34.903Z,97771.53
2023-05-03T22:01:03.674Z,97770.44
2023-05-03T22:03:31.947Z,97769.78
2023-05-03T22:06:00.496Z,97772.53
2023-05-03T22:08:28.458Z,97772.72
2023-05-03T22:10:57.500Z,97771.31
2023-05-03T22:13:25.692Z,97767.13
2023-05-03T22:15:55.522Z,97768.75
2023-05-03T22:18:24.080Z,97765.53
2023-05-03T22:20:52.701Z,97762.22
2023-05-03T22:23:21.751Z,97763.81
2023-05-03T22:25:50.159Z,97763.88
2023-05-03T22:28:18.079Z,97759.88
2023-05-03T22:30:47.053Z,97759.63
2023-05-03T22:33:16.493Z,97763.81
2023-05-03T22:35:45.179Z,97763.03
2023-05-03T22:38:13.178Z,97758.44
2023-05-03T22:40:41.708Z,97763.28
2023-05-03T22:43:09.808Z,97759.03
2023-05-03T22:45:38.999Z,97758.78
2023-05-03T22:48:08.515Z,97755.06
2023-05-03T22:50:38.075Z,97758.00
2023-05-03T22:53:06.172Z,97752.44
2023-05-03T22:55:34.718Z,97756.84
2023-05-03T22:58:02.613Z,97755.78
2023-05-03T23:00:31.513Z,97753.97
2023-05-03T23:02:59.554Z,97754.34
2023-05-03T23:05:27.883Z,97750.47
2023-05-03T23:07:57.399Z,97751.00
2023-05-03T23:10:25.424Z,97750.00
2023-05-03T23:12:53.846Z,97760.22
2023-05-03T23:15:22.300Z,97758.56
2023-05-03T23:17:50.565Z,97760.44
2023-05-03T23:20:18.739Z,97756.56
2023-05-03T23:22:47.849Z,97748.09
2023-05-03T23:25:17.953Z,97751.03
2023-05-03T23:27:45.925Z,97753.59
2023-05-03T23:30:15.461Z,97747.63
2023-05-03T23:32:43.993Z,97750.41
2023-05-03T23:35:13.249Z,97747.63
2023-05-03T23:37:41.517Z,97733.31
2023-05-03T23:40:10.979Z,97743.28
2023-05-03T23:42:41.406Z,97740.41
2023-05-03T23:45:10.786Z,97743.94
2023-05-03T23:47:38.840Z,97743.84
2023-05-03T23:50:08.634Z,97738.59
2023-05-03T23:52:37.199Z,97742.41
2023-05-03T23:55:05.843Z,97736.41
2023-05-03T23:57:34.552Z,97736.22
